createdAt,value
2022-08-22T00:05:00.844Z,18.1
2022-08-22T00:20:00.843Z,17.8
2022-08-22T00:35:00.840Z,17.7
2022-08-22T00:50:00.841Z,17.6
2022-08-22T01:05:00.850Z,17.6
2022-08-22T01:20:00.850Z,17.4
2022-08-22T01:35:00.845Z,17.3
2022-08-22T01:50:00.839Z,17.3
2022-08-22T02:05:00.846Z,17.2
2022-08-22T02:20:00.846Z,17.1
2022-08-22T02:35:00.846Z,16.9
2022-08-22T02:50:00.842Z,16.8
2022-08-22T03:05:00.841Z,16.8
2022-08-22T03:20:00.839Z,16.6
2022-08-22T03:35:00.840Z,16.3
2022-08-22T03:50:00.845Z,16.2
2022-08-22T04:05:00.843Z,16.1
2022-08-22T04:20:00.842Z,15.9
2022-08-22T04:35:00.843Z,15.8
2022-08-22T04:50:00.850Z,15.8
2022-08-22T05:05:00.842Z,15.9
2022-08-22T05:20:00.841Z,15.9
2022-08-22T05:35:00.843Z,15.9
2022-08-22T05:50:00.845Z,16.4
2022-08-22T06:05:00.860Z,16.9
2022-08-22T06:20:00.853Z,17.6
2022-08-22T06:35:00.846Z,17.7
2022-08-22T06:50:00.840Z,17.9
2022-08-22T07:05:00.847Z,18.2
2022-08-22T07:20:00.838Z,18.4
2022-08-22T07:35:00.866Z,18.8
2022-08-22T07:50:00.840Z,19.2
2022-08-22T08:05:00.838Z,19.6
2022-08-22T08:20:00.845Z,19.8
2022-08-22T08:35:00.852Z,19.9
2022-08-22T08:50:00.845Z,20.4
2022-08-22T09:05:00.841Z,20.8
2022-08-22T09:20:00.848Z,21.4
2022-08-22T09:35:00.844Z,21.6
2022-08-22T09:50:00.852Z,21.9
2022-08-22T10:05:00.842Z,22.4
2022-08-22T10:20:00.850Z,22.8
2022-08-22T10:35:00.875Z,23.2
2022-08-22T10:50:00.847Z,23.6
2022-08-22T11:05:00.844Z,23.9
2022-08-22T11:20:00.839Z,24
2022-08-22T11:35:00.846Z,23.9
2022-08-22T11:50:00.846Z,23.8
2022-08-22T12:05:00.840Z,23.9
2022-08-22T12:20:15.326Z,24.1
2022-08-22T12:35:00.873Z,24
2022-08-22T12:50:00.843Z,24.5
2022-08-22T13:05:00.849Z,24.8
2022-08-22T13:20:00.857Z,25.1
2022-08-22T13:35:00.849Z,25
2022-08-22T13:50:00.855Z,25.4
2022-08-22T14:05:00.844Z,26.1
2022-08-22T14:20:01.475Z,28.1
2022-08-22T14:35:00.853Z,28.6
2022-08-22T14:50:00.865Z,30.5
2022-08-22T15:05:00.852Z,29.7
2022-08-22T15:20:00.845Z,27.4
2022-08-22T15:35:00.842Z,27.6
2022-08-22T15:50:00.844Z,27.3
2022-08-22T16:05:00.842Z,28.2
2022-08-22T16:20:00.865Z,27.1
2022-08-22T16:35:00.839Z,26.9
2022-08-22T16:50:00.844Z,26.2
2022-08-22T17:05:00.842Z,26.7
2022-08-22T17:20:00.847Z,26.7
2022-08-22T17:35:00.839Z,26.7
2022-08-22T17:50:00.840Z,26.3
2022-08-22T18:05:00.861Z,25.4
2022-08-22T18:20:00.848Z,25.4
2022-08-22T18:35:02.521Z,25.1
2022-08-22T18:50:00.845Z,24.7
2022-08-22T19:05:00.859Z,24.3
2022-08-22T19:20:00.862Z,24
2022-08-22T19:35:02.138Z,23.8
2022-08-22T19:50:00.845Z,23.5
2022-08-22T20:05:00.849Z,23.3
2022-08-22T20:20:17.474Z,23
2022-08-22T20:35:00.847Z,22.8
2022-08-22T20:50:00.847Z,22.6
2022-08-22T21:05:00.844Z,22.3
2022-08-22T21:20:00.840Z,22.2
2022-08-22T21:35:00.843Z,22.2
2022-08-22T21:50:00.843Z,22.1
2022-08-22T22:05:00.847Z,22.1
2022-08-22T22:20:00.845Z,22.1
2022-08-22T22:35:00.847Z,22
2022-08-22T22:50:00.852Z,21.8
2022-08-22T23:05:00.837Z,21.5
2022-08-22T23:20:00.850Z,21.2
2022-08-22T23:35:00.846Z,20.9
2022-08-22T23:50:04.340Z,20.6
